Time;durP1;ratioP1;P1;durP2;ratioP2;P2;SDS_P1;SDS_P2;PMS_P1;PMS_P2;Temp;Humidity;BMP_temperature;BMP_pressure;BME280_temperature;BME280_humidity;BME280_pressure;Samples;Min_cycle;Max_cycle;Signal;HPM_P1;HPM_P2
2022/12/12 00:00:51;;;;;;;0.57;0.57;;;;;;;3.64;96.27;93351.88;5144504;27;20599;-76
2022/12/12 00:03:18;;;;;;;0.50;0.50;;;;;;;3.53;97.39;93357.56;5144738;27;20560;-73
2022/12/12 00:05:45;;;;;;;1.05;0.90;;;;;;;3.82;98.09;93364.19;5137476;27;20231;-75
2022/12/12 00:08:12;;;;;;;1.05;0.77;;;;;;;3.95;97.42;93378.50;5150461;27;20196;-74
2022/12/12 00:10:39;;;;;;;1.15;1.00;;;;;;;4.03;98.58;93383.84;5138291;27;20193;-75
2022/12/12 00:13:07;;;;;;;0.70;0.60;;;;;;;4.04;98.16;93377.38;5137322;27;20276;-75
2022/12/12 00:15:33;;;;;;;3.80;1.83;;;;;;;3.95;98.55;93381.19;5143138;27;20217;-76
2022/12/12 00:18:00;;;;;;;2.22;1.52;;;;;;;3.92;98.61;93390.63;5144439;27;20204;-75
2022/12/12 00:20:27;;;;;;;1.52;1.05;;;;;;;3.82;98.32;93397.09;5138776;27;20196;-76
2022/12/12 00:22:54;;;;;;;2.30;1.42;;;;;;;3.63;97.99;93398.50;5135539;27;20712;-75
2022/12/12 00:25:21;;;;;;;1.75;1.13;;;;;;;3.71;99.30;93389.66;5139376;27;20223;-75
2022/12/12 00:27:47;;;;;;;1.73;1.63;;;;;;;3.88;99.75;93387.78;5134940;27;20221;-75
2022/12/12 00:30:16;;;;;;;1.38;1.17;;;;;;;3.91;99.45;93391.72;5139477;27;20204;-75
2022/12/12 00:32:42;;;;;;;1.67;1.58;;;;;;;3.65;97.71;93401.66;5134932;27;20240;-75
2022/12/12 00:35:09;;;;;;;1.95;1.42;;;;;;;3.49;97.03;93409.34;5139583;27;20228;-75
2022/12/12 00:37:36;;;;;;;1.63;1.40;;;;;;;3.41;98.03;93408.25;5136826;27;20230;-75
2022/12/12 00:40:04;;;;;;;2.35;1.80;;;;;;;3.30;98.96;93404.28;5141658;27;20196;-76
2022/12/12 00:42:31;;;;;;;2.28;1.63;;;;;;;3.09;100.00;93397.94;5145800;27;20239;-74
2022/12/12 00:44:57;;;;;;;2.40;1.90;;;;;;;2.93;100.00;93408.28;5143905;27;20608;-74
2022/12/12 00:47:26;;;;;;;3.70;2.05;;;;;;;2.94;100.00;93399.16;5148624;27;20256;-76
2022/12/12 00:49:52;;;;;;;2.08;1.83;;;;;;;2.88;100.00;93396.91;5134477;27;20205;-74
2022/12/12 00:52:19;;;;;;;3.42;1.75;;;;;;;2.92;100.00;93405.91;5151784;27;20532;-75
2022/12/12 00:54:46;;;;;;;9.27;6.15;;;;;;;2.80;100.00;93407.28;5154856;27;20203;-76
2022/12/12 00:57:12;;;;;;;9.90;5.93;;;;;;;2.78;100.00;93416.72;5140837;27;20200;-74
2022/12/12 00:59:39;;;;;;;9.57;6.25;;;;;;;2.84;100.00;93420.84;5144421;27;20233;-74
2022/12/12 01:02:06;;;;;;;10.02;5.95;;;;;;;2.75;100.00;93428.81;5148276;27;20258;-75
2022/12/12 01:04:34;;;;;;;9.45;6.22;;;;;;;2.84;100.00;93426.97;5145088;27;20595;-75
2022/12/12 01:07:03;;;;;;;11.20;7.03;;;;;;;2.87;100.00;93424.78;5136644;27;20228;-75
2022/12/12 01:09:30;;;;;;;15.02;7.15;;;;;;;2.93;100.00;93423.53;5145410;27;20574;-75
2022/12/12 01:11:56;;;;;;;6.30;2.78;;;;;;;3.01;100.00;93430.78;5140927;27;20200;-76
2022/12/12 01:14:23;;;;;;;10.07;6.50;;;;;;;3.15;100.00;93420.75;5142920;27;20285;-75
2022/12/12 01:16:50;;;;;;;2.15;1.58;;;;;;;3.23;100.00;93414.66;5148118;27;20204;-75
2022/12/12 01:19:17;;;;;;;15.27;8.98;;;;;;;3.19;100.00;93421.72;5146023;27;20204;-75
2022/12/12 01:21:45;;;;;;;13.27;8.50;;;;;;;3.15;100.00;93407.38;5140444;27;20200;-75
2022/12/12 01:24:11;;;;;;;13.63;8.40;;;;;;;3.13;100.00;93417.63;5153734;27;20200;-75
2022/12/12 01:26:38;;;;;;;11.95;6.80;;;;;;;3.23;100.00;93409.31;5135476;27;20229;-75
2022/12/12 01:29:05;;;;;;;10.57;6.55;;;;;;;3.19;100.00;93408.34;5146101;27;20196;-75
2022/12/12 01:31:32;;;;;;;2.00;1.70;;;;;;;3.20;100.00;93412.59;5140097;27;20197;-74
2022/12/12 01:33:59;;;;;;;4.35;2.92;;;;;;;3.04;100.00;93408.78;5142119;27;20208;-75
2022/12/12 01:36:25;;;;;;;1.30;1.00;;;;;;;2.99;100.00;93422.31;5146229;27;20255;-75
2022/12/12 01:38:55;;;;;;;3.83;1.52;;;;;;;2.98;100.00;93426.06;5144067;27;20192;-75
2022/12/12 01:41:23;;;;;;;2.28;1.90;;;;;;;2.82;100.00;93429.16;5138891;27;20193;-75
2022/12/12 01:43:50;;;;;;;1.75;1.33;;;;;;;2.68;100.00;93444.50;5140265;27;20201;-75
2022/12/12 01:46:42;;;;;;;4.53;2.45;;;;;;;2.49;100.00;93446.59;5145787;27;20778;-75
2022/12/12 01:49:17;;;;;;;4.00;2.25;;;;;;;2.43;100.00;93435.28;5148858;27;20196;-76
2022/12/12 01:51:45;;;;;;;4.45;2.42;;;;;;;2.50;100.00;93443.63;5152668;27;20243;-75
2022/12/12 01:54:17;;;;;;;6.63;2.03;;;;;;;2.59;100.00;93441.00;5139058;27;20204;-75
2022/12/12 01:56:46;;;;;;;5.80;2.92;;;;;;;2.49;100.00;93446.59;5139746;27;20189;-75
2022/12/12 01:59:15;;;;;;;2.83;2.40;;;;;;;2.40;100.00;93445.78;5138905;27;20241;-75
2022/12/12 02:01:43;;;;;;;3.05;2.05;;;;;;;2.36;100.00;93447.47;5138705;27;20209;-76
2022/12/12 02:04:11;;;;;;;4.18;2.15;;;;;;;2.36;100.00;93458.16;5144880;27;20253;-75
2022/12/12 02:06:39;;;;;;;4.97;2.13;;;;;;;2.35;100.00;93468.06;5145813;27;20219;-76
2022/12/12 02:09:09;;;;;;;12.43;7.80;;;;;;;2.23;100.00;93464.34;5140659;27;20260;-75
2022/12/12 02:11:42;;;;;;;11.63;7.90;;;;;;;2.21;100.00;93472.66;5138226;27;20215;-76
2022/12/12 02:14:09;;;;;;;11.73;6.97;;;;;;;2.08;100.00;93468.97;5142380;27;20197;-75
2022/12/12 02:17:02;;;;;;;16.02;8.10;;;;;;;1.91;100.00;93468.06;5145734;27;20603;-76
2022/12/12 02:20:12;;;;;;;15.60;8.65;;;;;;;1.93;100.00;93474.66;5103521;27;20574;-76
2022/12/12 02:23:00;;;;;;;14.45;8.82;;;;;;;2.00;100.00;93472.38;5078770;27;20227;-77
2022/12/12 02:26:18;;;;;;;17.50;10.00;;;;;;;2.04;100.00;93468.00;5131600;28;20254;-77
2022/12/12 02:29:15;;;;;;;17.95;10.77;;;;;;;2.20;100.00;93460.41;5125069;27;20249;-75
2022/12/12 02:31:51;;;;;;;17.85;10.52;;;;;;;2.17;100.00;93470.94;5138727;27;20256;-76
2022/12/12 02:34:25;;;;;;;24.60;12.27;;;;;;;2.11;100.00;93465.69;5137196;27;20196;-77
2022/12/12 02:37:03;;;;;;;19.13;11.90;;;;;;;2.09;100.00;93473.22;5100159;27;1164621;-76
2022/12/12 02:39:40;;;;;;;16.55;10.98;;;;;;;2.02;100.00;93475.53;5139927;27;20248;-76
2022/12/12 02:42:14;;;;;;;17.38;10.25;;;;;;;2.05;100.00;93469.56;5140530;27;20705;-76
2022/12/12 02:44:47;;;;;;;20.30;12.00;;;;;;;2.04;100.00;93481.38;5146247;27;20679;-76
2022/12/12 02:47:19;;;;;;;20.27;11.70;;;;;;;2.22;100.00;93478.78;5146839;27;20272;-76
2022/12/12 02:49:49;;;;;;;18.17;11.35;;;;;;;2.08;100.00;93474.31;5141377;27;20635;-76
2022/12/12 02:52:17;;;;;;;20.10;11.80;;;;;;;2.07;100.00;93462.03;5135986;27;20893;-75
2022/12/12 02:54:44;;;;;;;21.58;12.30;;;;;;;2.14;100.00;93467.75;5132608;27;20193;-76
2022/12/12 02:57:14;;;;;;;20.02;11.77;;;;;;;2.21;100.00;93466.53;5145997;27;20208;-76
2022/12/12 02:59:44;;;;;;;22.08;11.98;;;;;;;2.25;100.00;93459.50;5143519;27;20204;-76
2022/12/12 03:02:41;;;;;;;4.55;3.28;;;;;;;2.18;100.00;93456.47;5138567;27;20192;-76
2022/12/12 03:08:31;;;;;;;4.78;2.38;;;;;;;2.13;100.00;93460.84;5145831;27;20218;-76
2022/12/12 03:11:01;;;;;;;5.78;3.42;;;;;;;2.20;100.00;93459.63;5142633;27;20287;-77
2022/12/12 03:13:33;;;;;;;8.20;3.97;;;;;;;2.24;100.00;93460.59;5134515;27;20309;-76
2022/12/12 03:16:17;;;;;;;6.13;3.25;;;;;;;2.17;100.00;93438.88;5143878;27;20755;-77
2022/12/12 03:18:53;;;;;;;22.85;12.55;;;;;;;2.39;100.00;93458.34;5139738;27;20276;-77
2022/12/12 03:21:26;;;;;;;20.92;12.30;;;;;;;2.40;100.00;93459.13;5136857;27;20195;-77
2022/12/12 03:23:57;;;;;;;24.05;12.23;;;;;;;2.32;100.00;93465.22;5131877;27;20185;-77
2022/12/12 03:26:29;;;;;;;20.35;10.77;;;;;;;2.25;100.00;93462.16;5131346;27;20246;-77
2022/12/12 03:29:04;;;;;;;19.90;11.23;;;;;;;2.44;100.00;93466.25;5143359;27;20670;-77
2022/12/12 03:31:34;;;;;;;20.92;12.10;;;;;;;2.52;100.00;93459.34;5138226;27;20721;-77
2022/12/12 03:34:06;;;;;;;23.73;12.23;;;;;;;2.74;100.00;93459.31;5139023;27;20254;-76
2022/12/12 03:36:37;;;;;;;4.55;2.80;;;;;;;2.81;100.00;93475.72;5138733;27;20240;-77
2022/12/12 03:39:09;;;;;;;4.68;2.65;;;;;;;2.78;100.00;93464.84;5151526;27;20192;-76
2022/12/12 03:41:40;;;;;;;5.07;3.00;;;;;;;2.87;100.00;93475.59;5131603;27;20280;-77
2022/12/12 03:44:14;;;;;;;5.43;3.28;;;;;;;2.94;100.00;93468.69;5145454;27;20189;-77
2022/12/12 03:46:48;;;;;;;6.53;4.18;;;;;;;2.88;100.00;93485.16;5142157;27;20188;-76
2022/12/12 03:49:21;;;;;;;4.88;2.53;;;;;;;2.90;100.00;93488.31;5132901;27;20575;-78
2022/12/12 03:51:55;;;;;;;4.07;2.45;;;;;;;3.04;100.00;93499.72;5143511;27;20325;-76
2022/12/12 03:54:27;;;;;;;6.85;3.35;;;;;;;2.94;100.00;93497.31;5138634;27;20192;-76
2022/12/12 03:56:59;;;;;;;6.43;2.33;;;;;;;3.10;100.00;93495.81;5138305;27;20316;-76
2022/12/12 03:59:32;;;;;;;8.13;4.90;;;;;;;3.07;100.00;93485.72;5142811;27;20193;-76
2022/12/12 04:02:08;;;;;;;5.93;3.55;;;;;;;2.82;100.00;93493.34;5136534;27;20188;-76
2022/12/12 04:04:41;;;;;;;3.53;2.05;;;;;;;2.62;100.00;93491.16;5142945;27;20195;-76
2022/12/12 04:07:13;;;;;;;6.60;3.13;;;;;;;2.56;100.00;93495.06;5145720;27;20220;-76
2022/12/12 04:15:32;;;;;;;9.88;3.30;;;;;;;2.04;100.00;93494.72;5131887;27;20227;-76
2022/12/12 04:18:11;;;;;;;6.22;3.30;;;;;;;2.04;100.00;93505.41;5142820;27;20264;-75
2022/12/12 04:23:37;;;;;;;5.88;3.33;;;;;;;2.00;100.00;93515.09;5131893;27;20192;-75
2022/12/12 04:29:02;;;;;;;25.50;11.38;;;;;;;2.06;100.00;93526.44;5140193;27;20231;-75
2022/12/12 04:31:31;;;;;;;18.75;10.13;;;;;;;1.95;100.00;93531.22;5139403;27;20596;-75
2022/12/12 04:34:04;;;;;;;19.80;10.30;;;;;;;2.08;100.00;93532.25;5130411;28;20270;-76
2022/12/12 04:36:34;;;;;;;20.10;10.50;;;;;;;1.89;100.00;93527.09;5133514;27;20270;-75
2022/12/12 04:39:03;;;;;;;18.95;10.60;;;;;;;1.92;100.00;93536.34;5140687;27;20203;-76
2022/12/12 04:41:33;;;;;;;19.13;10.10;;;;;;;2.11;100.00;93529.78;5136580;27;20242;-75
2022/12/12 04:44:03;;;;;;;20.38;11.68;;;;;;;2.02;100.00;93531.59;5136915;27;20647;-76
2022/12/12 04:46:32;;;;;;;7.35;3.15;;;;;;;2.08;100.00;93542.94;5137995;27;20193;-77
2022/12/12 04:49:03;;;;;;;3.20;1.25;;;;;;;1.99;100.00;93518.84;5140055;27;20231;-78
2022/12/12 04:51:37;;;;;;;20.85;10.95;;;;;;;1.98;100.00;93519.94;5139811;27;20241;-75
2022/12/12 04:54:10;;;;;;;20.75;10.65;;;;;;;2.00;100.00;93515.09;5133107;27;20189;-75
2022/12/12 04:56:40;;;;;;;24.83;13.55;;;;;;;1.74;100.00;93506.06;5138125;27;20610;-76
2022/12/12 04:59:08;;;;;;;12.48;4.35;;;;;;;1.84;100.00;93515.72;5132781;27;20620;-78
2022/12/12 05:01:43;;;;;;;15.35;4.05;;;;;;;2.03;100.00;93514.50;5139488;27;20197;-77
2022/12/12 05:04:16;;;;;;;6.22;2.92;;;;;;;1.85;100.00;93514.63;5137550;27;20234;-76
2022/12/12 05:06:49;;;;;;;9.65;3.67;;;;;;;1.70;100.00;93521.09;5137078;27;20252;-78
2022/12/12 05:09:18;;;;;;;32.58;11.38;;;;;;;1.70;100.00;93529.88;5141240;27;20250;-76
2022/12/12 05:11:45;;;;;;;27.90;10.65;;;;;;;1.58;100.00;93529.59;5146842;27;20197;-76
2022/12/12 05:14:15;;;;;;;26.98;12.38;;;;;;;1.77;100.00;93537.50;5140807;27;20232;-77
2022/12/12 05:16:47;;;;;;;5.50;2.60;;;;;;;1.87;100.00;93525.81;5147297;27;20196;-74
2022/12/12 05:19:13;;;;;;;10.85;2.85;;;;;;;1.81;100.00;93529.66;5138708;27;21003;-78
2022/12/12 05:21:40;;;;;;;11.80;4.07;;;;;;;1.84;100.00;93532.53;5138471;27;20333;-76
2022/12/12 05:24:09;;;;;;;4.50;3.30;;;;;;;2.00;100.00;93536.47;5132186;27;20188;-77
2022/12/12 05:26:36;;;;;;;9.45;3.30;;;;;;;2.06;100.00;93540.56;5129123;27;20621;-76
2022/12/12 05:29:04;;;;;;;5.45;2.42;;;;;;;2.09;100.00;93534.63;5144278;27;20284;-75
2022/12/12 05:31:31;;;;;;;6.25;2.63;;;;;;;2.19;100.00;93540.88;5147814;27;20201;-76
2022/12/12 05:33:58;;;;;;;6.70;4.55;;;;;;;2.23;100.00;93537.25;5132454;27;20601;-75
2022/12/12 05:36:25;;;;;;;8.57;3.70;;;;;;;2.39;100.00;93545.72;5131641;27;20233;-76
2022/12/12 05:38:52;;;;;;;5.68;2.92;;;;;;;2.46;100.00;93532.75;5132993;27;20205;-76
2022/12/12 05:41:20;;;;;;;10.48;3.65;;;;;;;2.20;100.00;93542.41;5138391;27;20265;-75
2022/12/12 05:43:47;;;;;;;9.20;4.40;;;;;;;2.26;100.00;93547.34;5141488;27;20292;-75
2022/12/12 05:46:13;;;;;;;7.05;3.72;;;;;;;2.33;100.00;93538.91;5132973;27;20212;-75
2022/12/12 05:48:40;;;;;;;7.18;3.30;;;;;;;2.37;100.00;93539.88;5132914;27;20232;-76
2022/12/12 05:51:07;;;;;;;8.38;3.40;;;;;;;2.61;100.00;93548.38;5140320;27;20564;-75
2022/12/12 05:53:34;;;;;;;5.13;2.42;;;;;;;2.59;100.00;93550.59;5154358;27;20658;-76
2022/12/12 05:56:00;;;;;;;11.50;3.45;;;;;;;2.55;100.00;93544.28;5146997;27;20336;-75
2022/12/12 05:58:29;;;;;;;6.18;3.33;;;;;;;2.38;100.00;93546.81;5132823;27;20201;-76
2022/12/12 06:00:55;;;;;;;5.80;3.83;;;;;;;2.62;100.00;93535.81;5140903;27;20727;-76
2022/12/12 06:03:22;;;;;;;7.05;3.35;;;;;;;2.63;100.00;93538.19;5138208;27;20226;-76
2022/12/12 06:05:49;;;;;;;6.32;3.60;;;;;;;2.49;100.00;93537.47;5132463;27;20208;-76
2022/12/12 06:08:16;;;;;;;6.90;3.63;;;;;;;2.64;100.00;93545.13;5131724;27;20297;-75
2022/12/12 06:10:44;;;;;;;9.10;4.22;;;;;;;2.71;100.00;93547.38;5132620;27;20288;-77
2022/12/12 06:13:11;;;;;;;11.30;4.25;;;;;;;2.74;100.00;93560.91;5132343;27;20236;-77
2022/12/12 06:15:40;;;;;;;5.25;2.70;;;;;;;2.96;100.00;93559.31;5132493;27;20711;-76
2022/12/12 06:18:07;;;;;;;7.32;4.28;;;;;;;2.64;100.00;93571.84;5132502;27;20201;-77
2022/12/12 06:20:35;;;;;;;5.28;3.58;;;;;;;2.69;100.00;93570.94;5132826;27;20201;-76
2022/12/12 06:23:02;;;;;;;9.35;4.18;;;;;;;2.90;100.00;93584.59;5132418;27;20208;-77
2022/12/12 06:25:29;;;;;;;6.60;3.55;;;;;;;3.12;100.00;93577.34;5132595;27;20286;-76
2022/12/12 06:27:56;;;;;;;7.97;3.83;;;;;;;5.46;100.00;93568.44;5132373;27;20702;-75
2022/12/12 06:30:22;;;;;;;10.95;6.25;;;;;;;6.65;100.00;93556.56;5131329;27;20257;-74
2022/12/12 06:32:51;;;;;;;9.93;5.88;;;;;;;8.58;100.00;93556.41;5135469;27;20256;-75
2022/12/12 06:35:17;;;;;;;12.88;6.97;;;;;;;7.06;100.00;93567.28;5141751;27;20328;-74
2022/12/12 06:37:44;;;;;;;10.68;5.63;;;;;;;5.54;100.00;93573.00;5131613;27;20205;-74
2022/12/12 06:40:12;;;;;;;6.53;4.43;;;;;;;7.15;100.00;93583.34;5130750;27;20250;-75
2022/12/12 06:42:39;;;;;;;5.32;3.90;;;;;;;5.09;95.82;93590.63;5135890;27;20264;-75
2022/12/12 06:45:07;;;;;;;11.80;6.05;;;;;;;6.36;100.00;93585.09;5142442;27;20189;-74
2022/12/12 06:47:34;;;;;;;9.50;6.25;;;;;;;4.54;95.02;93584.03;5150417;27;20217;-74
2022/12/12 06:50:02;;;;;;;9.75;5.60;;;;;;;5.17;100.00;93595.22;5152599;27;20245;-75
2022/12/12 06:52:28;;;;;;;9.93;5.88;;;;;;;6.16;98.21;93598.50;5133715;27;20601;-75
2022/12/12 06:54:55;;;;;;;11.20;5.65;;;;;;;6.09;100.00;93593.63;5132105;27;20193;-75
2022/12/12 06:57:22;;;;;;;14.48;5.15;;;;;;;5.55;100.00;93590.69;5150949;27;20530;-74
2022/12/12 06:59:50;;;;;;;8.90;4.30;;;;;;;6.36;100.00;93582.41;5140533;27;20197;-74
2022/12/12 07:02:18;;;;;;;9.52;4.95;;;;;;;7.32;99.13;93590.47;5131557;27;20566;-75
2022/12/12 07:04:45;;;;;;;10.60;5.90;;;;;;;5.54;91.39;93599.06;5130856;27;20201;-75
2022/12/12 07:07:13;;;;;;;15.30;7.43;;;;;;;5.39;94.63;93618.38;5140771;27;20269;-76
2022/12/12 07:09:41;;;;;;;5.50;4.00;;;;;;;4.12;94.39;93607.00;5130437;27;20771;-76
2022/12/12 07:12:07;;;;;;;10.57;5.00;;;;;;;4.26;97.07;93615.72;5130792;27;20269;-76
2022/12/12 07:14:35;;;;;;;12.65;6.25;;;;;;;4.32;97.51;93602.16;5131176;27;20281;-75
2022/12/12 07:17:01;;;;;;;7.53;3.78;;;;;;;4.12;96.55;93619.63;5137892;27;20257;-74
2022/12/12 07:19:28;;;;;;;11.63;6.45;;;;;;;3.98;95.64;93618.94;5151681;27;20257;-75
2022/12/12 07:21:55;;;;;;;12.32;5.93;;;;;;;3.73;98.49;93628.47;5151603;27;20256;-76
2022/12/12 07:24:23;;;;;;;6.43;3.35;;;;;;;3.72;97.11;93632.25;5143437;27;20284;-75
2022/12/12 07:26:50;;;;;;;17.02;8.23;;;;;;;3.68;97.21;93636.66;5130871;27;20269;-75
2022/12/12 07:29:16;;;;;;;17.38;6.53;;;;;;;3.88;98.58;93652.16;5131287;27;20270;-76
2022/12/12 07:31:43;;;;;;;4.38;3.85;;;;;;;3.82;98.97;93648.06;5131058;27;20205;-76
2022/12/12 07:34:10;;;;;;;6.70;3.40;;;;;;;3.67;98.68;93651.94;5130285;27;20209;-74
2022/12/12 07:36:37;;;;;;;9.40;5.03;;;;;;;3.85;99.61;93658.13;5130374;27;20738;-74
2022/12/12 07:39:04;;;;;;;6.82;3.38;;;;;;;3.66;98.61;93665.63;5130595;27;20209;-75
2022/12/12 07:41:32;;;;;;;20.60;7.05;;;;;;;3.79;98.08;93680.81;5130244;27;20254;-74
2022/12/12 07:43:59;;;;;;;5.95;3.83;;;;;;;3.67;98.53;93688.63;5129481;27;20736;-74
2022/12/12 07:46:26;;;;;;;8.57;4.93;;;;;;;4.08;99.72;93689.13;5130732;27;20201;-75
2022/12/12 07:48:53;;;;;;;14.35;6.20;;;;;;;4.35;96.50;93666.69;5130594;27;20633;-75
2022/12/12 07:51:20;;;;;;;12.45;5.80;;;;;;;4.67;95.73;93668.13;5139099;27;20200;-75
2022/12/12 07:53:48;;;;;;;8.88;6.13;;;;;;;5.08;96.02;93669.56;5150413;27;20212;-74
2022/12/12 07:56:16;;;;;;;11.77;6.65;;;;;;;4.82;94.00;93680.28;5151360;27;20595;-75
2022/12/12 07:58:45;;;;;;;10.90;5.57;;;;;;;5.24;94.32;93681.41;5148160;27;20204;-76
2022/12/12 08:01:14;;;;;;;15.85;8.45;;;;;;;5.11;94.11;93679.69;5130880;27;20241;-77
2022/12/12 08:03:41;;;;;;;6.50;3.83;;;;;;;4.77;93.52;93694.66;5130773;27;20205;-77
2022/12/12 08:06:08;;;;;;;11.05;6.43;;;;;;;4.44;94.70;93691.59;5129702;27;20197;-77
2022/12/12 08:08:35;;;;;;;12.95;7.38;;;;;;;4.16;97.37;93691.03;5130052;27;20244;-76
2022/12/12 08:11:05;;;;;;;20.08;9.48;;;;;;;4.71;97.71;93706.63;5131120;27;20208;-76
2022/12/12 08:13:33;;;;;;;15.40;8.40;;;;;;;4.94;95.46;93693.88;5134863;27;20245;-77
2022/12/12 08:16:01;;;;;;;17.42;8.85;;;;;;;5.05;93.69;93699.75;5140271;27;20266;-78
2022/12/12 08:18:28;;;;;;;21.08;8.38;;;;;;;5.41;92.86;93699.41;5130298;27;20728;-77
2022/12/12 08:20:55;;;;;;;13.85;7.05;;;;;;;5.30;91.01;93701.63;5130258;27;20316;-77
2022/12/12 08:23:21;;;;;;;17.38;8.10;;;;;;;5.29;92.50;93710.78;5131393;27;20193;-77
2022/12/12 08:25:48;;;;;;;14.45;6.57;;;;;;;5.44;90.72;93699.56;5130596;27;20613;-76
2022/12/12 08:28:15;;;;;;;17.75;7.88;;;;;;;5.71;91.25;93709.16;5134902;27;20223;-77
2022/12/12 08:30:42;;;;;;;21.58;11.02;;;;;;;5.83;90.10;93703.13;5139857;27;20248;-76
2022/12/12 08:33:10;;;;;;;16.70;8.88;;;;;;;5.95;91.04;93716.72;5130204;27;20307;-76
2022/12/12 08:35:36;;;;;;;18.17;9.13;;;;;;;6.24;89.51;93714.09;5129686;27;20622;-76
2022/12/12 08:38:03;;;;;;;11.63;7.03;;;;;;;6.52;87.99;93713.66;5129243;27;20254;-75
2022/12/12 08:40:30;;;;;;;26.00;9.43;;;;;;;6.42;87.37;93707.50;5128592;27;20297;-75
2022/12/12 08:42:57;;;;;;;18.70;9.80;;;;;;;6.46;86.66;93709.53;5129290;27;20249;-76
2022/12/12 08:45:24;;;;;;;19.00;9.20;;;;;;;6.57;85.26;93708.06;5141913;27;20252;-76
2022/12/12 08:47:50;;;;;;;19.45;10.43;;;;;;;6.77;85.19;93704.63;5131799;27;20258;-76
2022/12/12 08:50:19;;;;;;;20.38;10.18;;;;;;;6.95;84.31;93706.13;5129607;27;20708;-76
2022/12/12 08:52:45;;;;;;;18.40;9.65;;;;;;;7.00;84.15;93699.72;5150778;27;20600;-74
2022/12/12 08:55:12;;;;;;;20.67;8.63;;;;;;;6.76;83.78;93700.38;5150588;27;20214;-74
2022/12/12 08:57:39;;;;;;;23.00;9.20;;;;;;;6.54;87.09;93700.66;5150470;27;20245;-76
2022/12/12 09:00:07;;;;;;;18.92;7.55;;;;;;;6.23;87.21;93707.13;5149867;27;20212;-76
2022/12/12 09:02:33;;;;;;;22.50;10.55;;;;;;;6.50;86.82;93700.50;5150898;27;20286;-76
2022/12/12 09:05:00;;;;;;;17.20;9.75;;;;;;;6.71;86.86;93700.53;5153353;27;20257;-76
2022/12/12 09:07:28;;;;;;;17.77;10.68;;;;;;;6.77;85.22;93685.78;5154569;27;20606;-74
2022/12/12 09:09:55;;;;;;;16.98;10.95;;;;;;;6.56;85.66;93698.44;5138832;27;20224;-75
2022/12/12 09:12:22;;;;;;;17.75;8.88;;;;;;;6.63;86.34;93690.63;5133684;27;20204;-75
2022/12/12 09:14:49;;;;;;;22.73;10.27;;;;;;;6.39;87.60;93683.97;5134234;27;20285;-77
2022/12/12 09:17:15;;;;;;;20.55;10.18;;;;;;;6.72;87.19;93692.16;5134159;27;20287;-77
2022/12/12 09:19:42;;;;;;;22.15;10.55;;;;;;;6.77;85.37;93689.28;5133398;27;20716;-75
2022/12/12 09:22:09;;;;;;;19.20;8.55;;;;;;;6.71;85.23;93689.78;5133396;27;20205;-75
2022/12/12 09:24:37;;;;;;;18.85;8.55;;;;;;;6.80;83.79;93693.22;5134418;27;20286;-75
2022/12/12 09:27:04;;;;;;;17.48;9.27;;;;;;;6.80;83.54;93693.22;5133614;27;20265;-77
2022/12/12 09:29:31;;;;;;;19.73;10.35;;;;;;;6.38;82.16;93682.38;5133192;27;20722;-76
2022/12/12 09:31:58;;;;;;;14.50;7.75;;;;;;;6.25;84.82;93694.16;5133508;27;20265;-76
2022/12/12 09:34:24;;;;;;;22.70;11.10;;;;;;;5.98;84.23;93684.63;5133355;27;20307;-75
2022/12/12 09:36:51;;;;;;;18.40;8.35;;;;;;;6.15;86.05;93682.97;5133080;27;20640;-76
2022/12/12 09:39:18;;;;;;;16.00;7.72;;;;;;;6.05;85.30;93678.72;5132763;27;20261;-77
2022/12/12 09:41:47;;;;;;;22.88;11.15;;;;;;;6.45;84.29;93670.31;5132545;27;20585;-75
2022/12/12 09:44:17;;;;;;;15.10;7.28;;;;;;;6.14;83.68;93668.75;5132307;27;20583;-76
2022/12/12 09:46:47;;;;;;;17.58;8.05;;;;;;;6.50;83.52;93670.13;5133153;27;20293;-75
2022/12/12 09:49:17;;;;;;;15.38;8.52;;;;;;;5.87;84.21;93661.06;5133204;27;20229;-75
2022/12/12 09:51:48;;;;;;;13.65;7.25;;;;;;;5.80;85.71;93658.06;5144878;27;20204;-76
2022/12/12 09:54:17;;;;;;;9.88;5.70;;;;;;;6.39;85.92;93667.03;5153460;27;20245;-75
2022/12/12 09:56:59;;;;;;;14.68;8.52;;;;;;;6.79;83.56;93659.34;5153529;27;20200;-75
2022/12/12 09:59:35;;;;;;;16.00;7.18;;;;;;;7.01;83.93;93659.03;5153355;27;20249;-75
2022/12/12 10:02:15;;;;;;;17.75;8.70;;;;;;;7.38;82.39;93664.59;5153117;27;20215;-76
2022/12/12 10:04:53;;;;;;;13.02;7.22;;;;;;;7.38;82.68;93659.22;5153590;27;20204;-75
2022/12/12 10:07:27;;;;;;;16.33;7.47;;;;;;;7.33;81.28;93657.50;5153296;27;20200;-74
2022/12/12 10:10:01;;;;;;;15.60;7.63;;;;;;;7.37;81.30;93663.03;5152948;27;20273;-76
2022/12/12 10:12:31;;;;;;;13.68;6.30;;;;;;;7.45;79.96;93643.28;5152533;27;20201;-75
2022/12/12 10:15:00;;;;;;;15.55;7.00;;;;;;;7.23;80.82;93649.84;5152755;27;21069;-75
2022/12/12 10:17:31;;;;;;;19.00;8.63;;;;;;;7.27;81.76;93647.25;5153318;27;20285;-76
2022/12/12 10:20:03;;;;;;;19.10;9.65;;;;;;;7.53;81.17;93653.16;5153429;27;20254;-75
2022/12/12 10:22:37;;;;;;;21.50;7.63;;;;;;;7.32;80.83;93644.34;5153413;27;20361;-75
2022/12/12 10:25:18;;;;;;;13.27;6.40;;;;;;;6.68;81.32;93644.72;5146368;27;20253;-75
2022/12/12 10:27:47;;;;;;;13.88;7.13;;;;;;;6.60;83.33;93654.41;5132241;27;20270;-76
2022/12/12 10:30:17;;;;;;;22.40;8.90;;;;;;;6.18;84.44;93648.16;5144556;27;20236;-74
2022/12/12 10:32:56;;;;;;;10.80;5.50;;;;;;;6.01;84.88;93640.19;5146630;27;20200;-75
2022/12/12 10:35:33;;;;;;;12.27;6.57;;;;;;;6.39;85.86;93624.78;5132295;27;20707;-75
2022/12/12 10:38:15;;;;;;;7.53;5.10;;;;;;;6.58;84.72;93610.09;5132021;27;20259;-75
2022/12/12 10:40:53;;;;;;;13.90;6.85;;;;;;;6.07;86.61;93612.00;5146094;27;20245;-76
2022/12/12 10:43:24;;;;;;;23.98;8.65;;;;;;;6.19;86.30;93608.59;5132140;27;20269;-75
2022/12/12 10:46:16;;;;;;;5.38;3.92;;;;;;;6.47;85.43;93603.53;5132233;27;20247;-75
2022/12/12 10:48:44;;;;;;;19.67;8.40;;;;;;;5.95;86.16;93593.09;5133415;27;20578;-74
2022/12/12 10:51:13;;;;;;;15.77;7.30;;;;;;;5.92;87.58;93582.97;5133946;27;20199;-71
2022/12/12 10:53:42;;;;;;;10.43;4.70;;;;;;;6.28;88.26;93604.00;5133160;27;20245;-73
2022/12/12 10:56:10;;;;;;;11.55;5.28;;;;;;;6.24;84.97;93605.75;5133505;27;20705;-74
2022/12/12 10:58:41;;;;;;;10.15;4.55;;;;;;;6.49;83.23;93614.75;5139820;27;20713;-73
2022/12/12 11:01:19;;;;;;;4.60;3.28;;;;;;;6.52;83.27;93611.41;5133771;27;20208;-73
2022/12/12 11:03:48;;;;;;;8.20;4.80;;;;;;;6.74;83.18;93605.72;5135721;27;20713;-75
2022/12/12 11:06:21;;;;;;;10.88;5.50;;;;;;;7.05;82.28;93610.69;5139926;27;20245;-74
2022/12/12 11:08:56;;;;;;;12.60;5.20;;;;;;;7.74;79.82;93610.00;5135044;27;20200;-73
2022/12/12 11:11:25;;;;;;;15.10;5.38;;;;;;;7.64;78.66;93600.44;5135951;27;20208;-72
2022/12/12 11:13:54;;;;;;;19.52;10.10;;;;;;;7.39;81.73;93606.88;5138142;27;20232;-71
2022/12/12 11:16:24;;;;;;;13.77;6.85;;;;;;;7.25;81.21;93609.06;5144248;27;20205;-71
2022/12/12 11:18:59;;;;;;;15.45;8.35;;;;;;;7.32;81.01;93601.25;5150282;27;20425;-72
2022/12/12 11:21:28;;;;;;;22.90;10.00;;;;;;;7.38;82.39;93608.03;5145317;27;20257;-74
2022/12/12 11:23:57;;;;;;;18.33;9.63;;;;;;;7.39;82.71;93607.66;5129777;27;20197;-72
2022/12/12 11:26:26;;;;;;;16.58;9.07;;;;;;;7.42;83.28;93601.63;5129377;27;20209;-74
2022/12/12 11:28:57;;;;;;;21.42;10.90;;;;;;;7.70;82.88;93601.78;5130617;27;20544;-74
2022/12/12 11:31:28;;;;;;;16.60;10.18;;;;;;;7.65;83.86;93588.56;5144097;27;20213;-75
2022/12/12 11:33:58;;;;;;;24.25;11.80;;;;;;;8.12;81.78;93575.44;5142766;27;20619;-72
2022/12/12 11:36:32;;;;;;;11.32;7.28;;;;;;;7.93;81.34;93577.88;5137021;27;20577;-73
2022/12/12 11:39:01;;;;;;;23.33;12.07;;;;;;;7.65;82.10;93585.84;5139590;27;20199;-71
2022/12/12 11:41:28;;;;;;;26.65;14.45;;;;;;;7.50;83.01;93586.50;5151134;27;20200;-71
2022/12/12 11:44:00;;;;;;;24.88;13.13;;;;;;;7.29;84.69;93574.97;5130563;27;20201;-72
2022/12/12 11:46:29;;;;;;;32.20;13.95;;;;;;;7.60;83.94;93586.06;5137884;27;20201;-71
2022/12/12 11:48:59;;;;;;;21.20;10.05;;;;;;;7.50;83.11;93583.81;5144248;27;20195;-71
2022/12/12 11:51:38;;;;;;;34.25;13.75;;;;;;;7.57;83.58;93581.34;5130101;27;20200;-71
2022/12/12 11:54:11;;;;;;;13.73;8.27;;;;;;;7.74;81.49;93574.97;5129983;27;20205;-70
2022/12/12 11:56:47;;;;;;;24.65;7.13;;;;;;;7.55;81.75;93566.63;5136296;27;20556;-74
2022/12/12 11:59:55;;;;;;;15.77;9.77;;;;;;;7.31;82.72;93568.16;5132664;27;20655;-72